Soaring Guidance
Issued by NWS Reno, NV

Home | Current Version | Previous Version | Text Only | Print | Product List | Glossary On
Versions: 1 2 3 4 5 6 7 8 9 10 11 12 13
000
UXUS97 KREV 031450
SRGREV

SOARING FORECAST
NATIONAL WEATHER SERVICE - RENO NV
700 AM PST TUE MAR 3 2015

THIS SOARING FORECAST IS FOR THE EASTERN SIERRA AND WESTERN NEVADA
WITH SPECIFIC INDICES FOR THE GREATER RENO AREA.

THIS FORECAST IS NOT UPDATED.

FOR CURRENT FLIGHT CONDITIONS...FORECASTS...AND ADVISORIES...ACCESS
YOUR LOCAL BRIEFING OUTLET OR FLIGHT SERVICE STATION.

*******************************************************************
LOCAL INDICES FOR RENO:                   TODAY     YESTERDAY
MAXIMUM TEMPERATURE AT RENO...(DEG F)...     50
TRIGGER TEMPERATURE...........(DEG F)...     39          42
   EXCEEDED YESTERDAY BY 20Z
MAXIMUM ALTITUDE..............(FT MSL)..  13800       12500
SOARING INDEX.................(FPM).....    744         645
FORECASTED K-INDEX.........VALID 18Z....      7          26
FORECASTED K-INDEX.........VALID 00Z....      0          29
FORECASTED LIFTED INDEX....VALID 18Z....      8           1
FORECASTED LIFTED INDEX....VALID 00Z....      8           1

AFTERNOON WINDS ALOFT FORECAST
MSL (FT) WIND/TEMP
9000  0317/-07
10000 0120/-07
12000 0127/-09
14000 2230/-13
16000 3333/-17
18000 3643/-22
24000 3657/-32
30000 3665/-46
34000 3657/-54
39000 3446/-57

SLIDE MOUNTAIN DATA:
 SLD HR 1350 M 16/13/3500/M  /SLIDE MTN UNOFFICIAL OBSERVATION

RENO TAF FORECAST:
KRNO 031147Z 0312/0412 32006KT P6SM BKN060 BKN090
     FM031800 02008KT P6SM FEW050
     FM040300 VRB03KT P6SM SKC

CARSON CITY TAF FORECAST:
KCXP 031147Z 0312/0412 32006KT P6SM BKN060 BKN090
     FM031800 02008KT P6SM SCT050
     FM040100 VRB03KT P6SM SKC

OUTLOOK FOR THE RENO-CARSON CITY-MINDEN AREA:
.WEDNESDAY...SUNNY. HIGHS 47 TO 52. LIGHT WINDS BECOMING
SOUTHEAST AROUND 10 MPH IN THE AFTERNOON.

SUNRISE AND SUNSET
MARCH  3 2015.........SUNRISE   629 AM PST   SUNSET   553 PM PST
MARCH  4 2015.........SUNRISE   628 AM PST   SUNSET   554 PM PST



THIS PRODUCT IS ROUTINELY PREPARED BY 700 AM AND IS
DISTRIBUTED TO THE RENO FLIGHT SERVICE STATION AS WELL AS THE
NATIONAL WEATHER SERVICE WORLD WIDE WEB HOMEPAGE AT:
       HTTP://WWW.WEATHER.GOV/RENO





USA.gov is the U.S. government's official web portal to all federal, state and local government web resources and services.